createdAt,value
2018-07-06T00:00:18.253Z,0.19
2018-07-06T00:01:18.249Z,0.00
2018-07-06T00:02:18.246Z,0.09
2018-07-06T00:03:18.245Z,0.00
2018-07-06T00:04:18.259Z,0.00
2018-07-06T00:05:18.241Z,0.00
2018-07-06T00:06:18.233Z,0.00
2018-07-06T00:07:18.227Z,0.00
2018-07-06T00:08:18.228Z,0.00
2018-07-06T00:09:18.224Z,0.00
2018-07-06T00:10:18.237Z,0.00
2018-07-06T00:11:18.215Z,0.00
2018-07-06T00:12:18.224Z,0.00
2018-07-06T00:13:18.219Z,0.00
2018-07-06T00:14:18.210Z,0.00
2018-07-06T00:15:18.206Z,0.00
2018-07-06T00:16:18.224Z,0.00
2018-07-06T00:17:18.197Z,0.00
2018-07-06T00:18:18.205Z,0.00
2018-07-06T00:19:18.192Z,0.00
2018-07-06T00:20:18.194Z,0.00
2018-07-06T00:21:18.201Z,0.00
2018-07-06T00:22:18.185Z,0.00
2018-07-06T00:23:18.182Z,0.00
2018-07-06T00:24:18.178Z,0.00
2018-07-06T00:25:18.178Z,0.00
2018-07-06T00:26:18.173Z,0.00
2018-07-06T00:27:18.168Z,0.00
2018-07-06T00:28:18.161Z,0.00
2018-07-06T00:29:18.163Z,0.00
2018-07-06T00:30:18.159Z,0.00
2018-07-06T00:31:18.169Z,0.00
2018-07-06T00:32:18.158Z,0.00
2018-07-06T00:33:18.151Z,0.00
2018-07-06T00:34:18.150Z,0.00
2018-07-06T00:35:18.145Z,0.00
2018-07-06T00:36:18.144Z,0.00
2018-07-06T00:37:18.139Z,0.00
2018-07-06T00:38:18.132Z,0.00
2018-07-06T00:39:18.140Z,0.00
2018-07-06T00:40:18.148Z,0.00
2018-07-06T00:41:18.126Z,0.00
2018-07-06T00:42:18.129Z,0.00
2018-07-06T00:43:18.139Z,0.00
2018-07-06T00:44:18.120Z,0.00
2018-07-06T00:45:18.116Z,0.00
2018-07-06T00:46:18.113Z,0.00
2018-07-06T00:47:18.112Z,0.00
2018-07-06T00:48:18.112Z,0.00
2018-07-06T00:49:18.096Z,0.00
2018-07-06T00:50:18.099Z,0.00
2018-07-06T00:51:18.093Z,0.00
2018-07-06T00:52:18.096Z,0.00
2018-07-06T00:53:18.095Z,0.00
2018-07-06T00:54:18.084Z,0.00
2018-07-06T00:55:18.090Z,0.00
2018-07-06T00:56:18.083Z,0.00
2018-07-06T00:57:18.079Z,0.00
2018-07-06T00:58:18.078Z,0.00
2018-07-06T00:59:18.077Z,0.00
2018-07-06T01:00:18.071Z,0.00
2018-07-06T01:01:18.068Z,0.00
2018-07-06T01:02:18.071Z,0.00
2018-07-06T01:03:18.064Z,0.00
2018-07-06T01:04:18.052Z,0.00
2018-07-06T01:05:18.089Z,0.00
2018-07-06T01:06:18.056Z,0.00
2018-07-06T01:07:18.052Z,0.00
2018-07-06T01:08:18.054Z,0.00
2018-07-06T01:09:18.044Z,0.00
2018-07-06T01:10:18.042Z,0.00
2018-07-06T01:11:18.042Z,0.00
2018-07-06T01:12:18.028Z,0.00
2018-07-06T01:13:18.030Z,0.00
2018-07-06T01:14:18.020Z,0.00
2018-07-06T01:15:18.025Z,0.00
2018-07-06T01:16:18.025Z,0.00
2018-07-06T01:17:18.022Z,0.00
2018-07-06T01:18:18.019Z,0.00
2018-07-06T01:19:18.016Z,0.00
2018-07-06T01:20:18.015Z,0.00
2018-07-06T01:21:18.009Z,0.00
2018-07-06T01:22:18.018Z,0.00
2018-07-06T01:23:18.006Z,0.00
2018-07-06T01:24:17.999Z,0.00
2018-07-06T01:25:18.010Z,0.00
2018-07-06T01:26:18.041Z,0.00
2018-07-06T01:27:17.990Z,0.00
2018-07-06T01:28:17.996Z,0.00
2018-07-06T01:29:17.985Z,0.00
2018-07-06T01:30:17.984Z,0.00
2018-07-06T01:31:18.001Z,0.00
2018-07-06T02:05:10.261Z,0.00
2018-07-06T02:06:10.223Z,0.00
2018-07-06T02:08:03.152Z,0.00
2018-07-06T02:09:03.128Z,0.00
2018-07-06T02:10:56.227Z,0.00
2018-07-06T02:11:56.258Z,0.00
2018-07-06T02:13:49.158Z,0.00
2018-07-06T02:14:49.137Z,0.00
2018-07-06T02:16:42.044Z,0.00
2018-07-06T02:17:42.030Z,0.00
2018-07-06T02:19:34.969Z,0.00
2018-07-06T02:20:34.950Z,0.00
2018-07-06T02:22:27.909Z,0.00
2018-07-06T02:23:27.885Z,0.00
2018-07-06T02:25:20.843Z,0.00
2018-07-06T02:26:20.831Z,0.00
2018-07-06T02:28:13.857Z,0.00
2018-07-06T02:29:13.836Z,0.00
2018-07-06T02:31:06.815Z,0.00
2018-07-06T02:32:06.800Z,0.00
2018-07-06T02:33:59.741Z,0.00
2018-07-06T02:34:59.709Z,0.00
2018-07-06T02:36:52.618Z,0.00
2018-07-06T02:37:52.589Z,0.00
2018-07-06T02:39:45.504Z,0.00
2018-07-06T02:40:45.479Z,0.00
2018-07-06T02:42:38.446Z,0.00
2018-07-06T02:43:38.412Z,0.00
2018-07-06T02:45:31.317Z,0.00
2018-07-06T02:46:31.309Z,0.00
2018-07-06T02:48:24.285Z,0.00
2018-07-06T02:49:24.260Z,0.00
2018-07-06T02:50:24.261Z,0.00
2018-07-06T02:51:24.254Z,0.00
2018-07-06T02:52:24.252Z,0.00
2018-07-06T02:53:24.249Z,0.00
2018-07-06T02:54:24.247Z,0.00
2018-07-06T02:55:24.244Z,0.00
2018-07-06T02:56:24.241Z,0.00
2018-07-06T02:57:24.242Z,0.00
2018-07-06T02:58:24.234Z,0.00
2018-07-06T02:59:24.236Z,0.00
2018-07-06T03:00:24.229Z,0.00
2018-07-06T03:01:24.227Z,0.00
2018-07-06T03:02:24.224Z,0.00
2018-07-06T03:03:24.223Z,0.00
2018-07-06T03:04:24.219Z,0.00
2018-07-06T03:05:24.216Z,0.00
2018-07-06T03:06:24.212Z,0.00
2018-07-06T03:07:24.210Z,0.00
2018-07-06T03:08:24.201Z,0.00
2018-07-06T03:09:24.208Z,0.00
2018-07-06T03:10:24.206Z,0.00
2018-07-06T03:11:24.201Z,0.00
2018-07-06T03:12:24.198Z,0.00
2018-07-06T03:13:24.193Z,0.00
2018-07-06T03:14:24.202Z,0.00
2018-07-06T03:15:24.188Z,0.00
2018-07-06T03:16:24.186Z,0.00
2018-07-06T03:17:24.187Z,0.00
2018-07-06T03:18:24.181Z,0.00
2018-07-06T03:19:24.179Z,0.00
2018-07-06T03:20:24.176Z,0.00
2018-07-06T03:21:24.182Z,0.00
2018-07-06T03:22:24.166Z,0.00
2018-07-06T03:23:24.165Z,0.00
2018-07-06T03:24:24.161Z,0.00
2018-07-06T03:25:24.158Z,0.00
2018-07-06T03:26:24.157Z,0.00
2018-07-06T03:27:24.155Z,0.00
2018-07-06T03:28:24.319Z,0.00
2018-07-06T03:29:24.149Z,0.00
2018-07-06T03:30:24.148Z,0.00
2018-07-06T03:31:24.145Z,0.00
2018-07-06T03:32:24.147Z,0.00
2018-07-06T03:33:24.140Z,0.00
2018-07-06T03:34:24.137Z,0.00
2018-07-06T03:35:24.132Z,0.00
2018-07-06T03:36:24.133Z,0.00
2018-07-06T03:37:24.124Z,0.00
2018-07-06T03:38:24.125Z,0.00
2018-07-06T03:39:24.119Z,0.00
2018-07-06T03:40:24.117Z,0.00
2018-07-06T03:41:24.117Z,0.00
2018-07-06T03:42:24.117Z,0.00
2018-07-06T03:43:24.112Z,0.00
2018-07-06T03:44:24.111Z,0.00
2018-07-06T03:45:24.105Z,0.00
2018-07-06T03:46:24.099Z,0.00
2018-07-06T03:47:24.103Z,0.00
2018-07-06T03:48:24.085Z,0.00
2018-07-06T03:49:24.101Z,0.00
2018-07-06T03:50:24.093Z,0.00
2018-07-06T03:51:24.092Z,0.00
2018-07-06T03:52:24.086Z,0.00
2018-07-06T03:53:24.089Z,0.00
2018-07-06T03:54:24.081Z,0.00
2018-07-06T03:55:24.089Z,0.00
2018-07-06T03:56:24.076Z,0.00
2018-07-06T03:57:24.073Z,0.00
2018-07-06T03:58:24.082Z,0.00
2018-07-06T03:59:24.068Z,0.00
2018-07-06T04:00:24.065Z,0.00
2018-07-06T04:01:24.063Z,0.00
2018-07-06T04:02:24.063Z,0.00
2018-07-06T04:03:24.061Z,0.00
2018-07-06T04:04:24.055Z,0.00
2018-07-06T04:05:24.046Z,0.00
2018-07-06T04:06:24.050Z,0.00
2018-07-06T04:07:24.044Z,0.00
2018-07-06T04:08:24.043Z,0.00
2018-07-06T04:09:24.085Z,0.00
2018-07-06T04:10:24.088Z,0.00
2018-07-06T04:11:24.087Z,0.00
2018-07-06T04:12:24.092Z,0.00
2018-07-06T04:13:24.090Z,0.00
2018-07-06T04:14:24.088Z,0.00
2018-07-06T04:15:24.088Z,0.00
2018-07-06T04:16:24.089Z,0.00
2018-07-06T04:17:24.032Z,0.00
2018-07-06T04:18:24.042Z,0.00
2018-07-06T04:19:24.040Z,0.00
2018-07-06T04:20:24.056Z,0.19
2018-07-06T04:21:24.054Z,0.09
2018-07-06T04:22:24.068Z,0.48
2018-07-06T04:23:24.075Z,0.57
2018-07-06T04:24:24.008Z,0.76
2018-07-06T04:25:24.009Z,1.43
2018-07-06T04:26:24.046Z,1.62
2018-07-06T04:27:24.010Z,1.53
2018-07-06T04:28:24.008Z,2.01
2018-07-06T04:29:24.007Z,2.58
2018-07-06T04:30:24.012Z,2.58
2018-07-06T04:31:24.012Z,2.58
2018-07-06T04:32:24.104Z,2.87
2018-07-06T04:33:23.986Z,3.16
2018-07-06T04:34:23.979Z,3.35
2018-07-06T04:35:23.989Z,4.11
2018-07-06T04:36:23.994Z,4.21
2018-07-06T04:37:23.991Z,4.30
2018-07-06T04:38:23.990Z,4.50
2018-07-06T04:39:23.990Z,4.50
2018-07-06T04:40:23.975Z,4.88
2018-07-06T04:41:23.981Z,5.46
2018-07-06T04:42:23.991Z,5.55
2018-07-06T04:43:23.994Z,6.22
2018-07-06T04:44:23.996Z,6.89
2018-07-06T04:45:23.995Z,7.46
2018-07-06T04:46:23.998Z,7.46
2018-07-06T04:47:24.004Z,7.46
2018-07-06T04:48:23.945Z,8.14
2018-07-06T04:49:23.946Z,8.61
2018-07-06T04:50:23.941Z,8.61
2018-07-06T04:51:23.933Z,9.38
2018-07-06T04:52:23.951Z,9.10
2018-07-06T04:53:23.998Z,9.57
2018-07-06T04:54:23.922Z,10.24
2018-07-06T04:55:23.927Z,10.72
2018-07-06T04:56:23.923Z,11.01
2018-07-06T04:57:23.926Z,11.30
2018-07-06T04:58:23.920Z,11.39
2018-07-06T04:59:23.918Z,11.30
2018-07-06T05:00:23.916Z,11.97
2018-07-06T05:01:23.915Z,11.49
2018-07-06T05:02:23.903Z,11.21
2018-07-06T05:03:23.908Z,11.21
2018-07-06T05:04:23.910Z,11.21
2018-07-06T05:05:23.907Z,11.59
2018-07-06T05:06:23.904Z,11.49
2018-07-06T05:07:23.902Z,12.26
2018-07-06T05:08:23.902Z,13.02
2018-07-06T05:09:23.917Z,13.21
2018-07-06T05:10:23.901Z,13.51
2018-07-06T05:11:23.892Z,13.70
2018-07-06T05:12:23.892Z,13.79
2018-07-06T05:13:23.891Z,14.46
2018-07-06T05:14:23.886Z,14.17
2018-07-06T05:15:23.883Z,14.46
2018-07-06T05:16:23.882Z,14.37
2018-07-06T05:17:23.881Z,14.65
2018-07-06T05:18:23.875Z,14.65
2018-07-06T05:19:23.876Z,14.75
2018-07-06T05:20:23.877Z,15.23
2018-07-06T05:21:23.941Z,15.71
2018-07-06T05:22:23.872Z,15.71
2018-07-06T05:23:23.867Z,15.80
2018-07-06T05:24:23.867Z,15.71
2018-07-06T05:25:23.863Z,15.52
2018-07-06T05:26:23.864Z,15.71
2018-07-06T05:27:23.859Z,15.61
2018-07-06T05:28:23.848Z,15.52
2018-07-06T05:29:23.860Z,15.13
2018-07-06T05:30:23.874Z,14.56
2018-07-06T05:31:23.850Z,14.37
2018-07-06T05:32:23.857Z,14.56
2018-07-06T05:33:23.845Z,14.37
2018-07-06T05:34:23.840Z,14.84
2018-07-06T05:35:23.840Z,14.56
2018-07-06T05:36:23.851Z,14.65
2018-07-06T05:37:23.835Z,15.61
2018-07-06T05:38:23.875Z,15.61
2018-07-06T05:39:23.880Z,15.52
2018-07-06T05:40:23.879Z,16.09
2018-07-06T05:41:23.879Z,15.61
2018-07-06T05:42:23.870Z,16.00
2018-07-06T05:43:23.880Z,15.52
2018-07-06T05:44:23.891Z,15.23
2018-07-06T05:45:23.821Z,14.65
2018-07-06T05:46:23.890Z,15.71
2018-07-06T05:47:23.818Z,16.19
2018-07-06T05:48:23.807Z,15.90
2018-07-06T05:49:23.816Z,15.90
2018-07-06T05:50:23.811Z,16.28
2018-07-06T05:51:23.812Z,17.14
2018-07-06T05:52:23.808Z,18.10
2018-07-06T05:53:23.799Z,18.59
2018-07-06T05:54:23.801Z,19.64
2018-07-06T05:55:23.798Z,19.92
2018-07-06T05:56:23.819Z,19.74
2018-07-06T05:57:23.796Z,19.65
2018-07-06T05:58:23.794Z,21.18
2018-07-06T05:59:23.789Z,20.98
2018-07-06T06:00:23.789Z,20.98
2018-07-06T06:01:23.787Z,21.18
2018-07-06T06:02:23.786Z,21.75
2018-07-06T06:03:23.781Z,20.79
2018-07-06T06:04:23.780Z,21.28
2018-07-06T06:05:23.781Z,21.47
2018-07-06T06:06:23.779Z,20.79
2018-07-06T06:07:23.776Z,20.98
2018-07-06T06:08:23.774Z,22.33
2018-07-06T06:09:23.772Z,22.89
2018-07-06T06:10:23.772Z,22.99
2018-07-06T06:11:23.767Z,21.65
2018-07-06T06:12:23.769Z,20.98
2018-07-06T06:13:23.765Z,19.26
2018-07-06T06:14:23.766Z,18.02
2018-07-06T06:15:23.762Z,17.72
2018-07-06T06:16:23.758Z,17.14
2018-07-06T06:17:23.757Z,16.09
2018-07-06T06:18:23.764Z,15.04
2018-07-06T06:19:23.768Z,14.37
2018-07-06T06:20:23.752Z,14.18
2018-07-06T06:21:23.751Z,13.60
2018-07-06T06:22:23.813Z,13.80
2018-07-06T06:23:23.753Z,13.32
2018-07-06T06:24:23.746Z,13.60
2018-07-06T06:25:23.745Z,13.79
2018-07-06T06:26:23.741Z,13.60
2018-07-06T06:27:23.735Z,14.84
2018-07-06T06:28:23.739Z,15.33
2018-07-06T06:29:23.735Z,14.76
2018-07-06T06:30:23.732Z,14.56
2018-07-06T06:31:23.724Z,14.09
2018-07-06T06:32:23.729Z,14.47
2018-07-06T06:33:23.831Z,14.95
2018-07-06T06:34:23.726Z,14.47
2018-07-06T06:35:23.720Z,16.00
2018-07-06T06:36:23.721Z,16.67
2018-07-06T06:37:23.721Z,16.58
2018-07-06T06:38:23.720Z,17.92
2018-07-06T06:39:23.722Z,18.30
2018-07-06T06:40:23.715Z,19.07
2018-07-06T06:41:23.713Z,19.36
2018-07-06T06:42:23.713Z,19.65
2018-07-06T06:43:23.710Z,19.45
2018-07-06T06:44:23.716Z,19.65
2018-07-06T06:45:23.707Z,20.22
2018-07-06T06:46:23.705Z,20.51
2018-07-06T06:47:23.708Z,20.41
2018-07-06T06:48:23.703Z,21.66
2018-07-06T06:49:23.702Z,22.24
2018-07-06T06:50:23.696Z,23.67
2018-07-06T06:51:23.694Z,24.44
2018-07-06T06:52:23.697Z,24.54
2018-07-06T06:53:23.697Z,23.38
2018-07-06T06:54:23.689Z,23.28
2018-07-06T06:55:23.688Z,22.24
2018-07-06T06:56:23.686Z,22.24
2018-07-06T06:57:23.684Z,21.66
2018-07-06T06:58:23.699Z,21.85
2018-07-06T06:59:23.686Z,21.56
2018-07-06T07:00:27.533Z,21.66
2018-07-06T07:01:23.678Z,21.08
2018-07-06T07:02:23.678Z,20.61
2018-07-06T07:03:23.675Z,20.79
2018-07-06T07:04:23.677Z,20.89
2018-07-06T07:05:23.672Z,20.50
2018-07-06T07:06:23.671Z,19.74
2018-07-06T07:07:23.707Z,19.65
2018-07-06T07:08:23.667Z,18.96
2018-07-06T07:09:23.670Z,18.87
2018-07-06T07:10:23.663Z,18.40
2018-07-06T07:11:23.667Z,18.40
2018-07-06T07:12:23.655Z,19.16
2018-07-06T07:13:23.659Z,18.88
2018-07-06T07:14:23.670Z,18.40
2018-07-06T07:15:23.653Z,18.39
2018-07-06T07:16:23.646Z,17.43
2018-07-06T07:17:23.652Z,16.86
2018-07-06T07:18:23.647Z,16.58
2018-07-06T07:19:23.644Z,15.91
2018-07-06T07:20:23.645Z,16.39
2018-07-06T07:21:23.642Z,16.58
2018-07-06T07:22:23.640Z,16.58
2018-07-06T07:23:23.643Z,16.00
2018-07-06T07:24:23.642Z,15.91
2018-07-06T07:25:23.636Z,16.39
2018-07-06T07:26:23.645Z,16.29
2018-07-06T07:27:23.633Z,16.58
2018-07-06T07:28:23.634Z,16.86
2018-07-06T07:29:23.629Z,17.25
2018-07-06T07:30:23.631Z,17.54
2018-07-06T07:31:23.626Z,18.02
2018-07-06T07:32:23.622Z,18.22
2018-07-06T07:33:23.622Z,19.84
2018-07-06T07:34:23.615Z,20.89
2018-07-06T07:35:23.617Z,21.85
2018-07-06T07:36:23.618Z,21.75
2018-07-06T07:37:23.613Z,21.85
2018-07-06T07:38:23.617Z,22.52
2018-07-06T07:39:23.614Z,23.00
2018-07-06T07:40:23.610Z,23.48
2018-07-06T07:41:23.608Z,23.39
2018-07-06T07:42:23.601Z,24.16
2018-07-06T07:43:23.606Z,24.45
2018-07-06T07:44:23.614Z,26.65
2018-07-06T07:45:23.611Z,28.19
2018-07-06T07:46:23.644Z,28.38
2018-07-06T07:47:23.599Z,28.19
2018-07-06T07:48:23.598Z,28.48
2018-07-06T07:49:23.597Z,27.81
2018-07-06T07:50:23.599Z,26.94
2018-07-06T07:51:23.596Z,28.00
2018-07-06T07:52:23.605Z,27.71
2018-07-06T07:53:23.591Z,28.48
2018-07-06T07:54:23.620Z,29.63
2018-07-06T07:55:23.590Z,30.87
2018-07-06T07:56:23.590Z,30.49
2018-07-06T07:57:23.588Z,30.12
2018-07-06T07:58:23.600Z,29.93
2018-07-06T07:59:23.583Z,30.89
2018-07-06T08:00:23.639Z,32.41
2018-07-06T08:01:23.699Z,32.89
2018-07-06T08:02:23.583Z,33.17
2018-07-06T08:03:23.580Z,33.19
2018-07-06T08:04:23.579Z,34.90
2018-07-06T08:05:23.579Z,35.19
2018-07-06T08:06:23.577Z,34.14
2018-07-06T08:07:23.577Z,32.51
2018-07-06T08:08:23.574Z,32.21
2018-07-06T08:09:23.575Z,32.33
2018-07-06T08:10:23.575Z,32.60
2018-07-06T08:11:23.571Z,32.21
2018-07-06T08:12:23.571Z,33.58
2018-07-06T08:13:23.572Z,35.28
2018-07-06T08:14:23.608Z,36.15
2018-07-06T08:15:23.567Z,34.81
2018-07-06T08:16:23.568Z,34.73
2018-07-06T08:17:23.571Z,34.73
2018-07-06T08:18:23.615Z,34.92
2018-07-06T08:19:23.577Z,36.07
2018-07-06T08:20:23.561Z,41.23
2018-07-06T08:21:23.601Z,40.27
2018-07-06T08:22:23.562Z,40.87
2018-07-06T08:23:23.563Z,40.77
2018-07-06T08:24:23.559Z,39.81
2018-07-06T08:25:23.561Z,38.47
2018-07-06T08:26:23.559Z,37.51
2018-07-06T08:27:23.558Z,38.95
2018-07-06T08:28:23.557Z,39.53
2018-07-06T08:29:23.560Z,40.67
2018-07-06T08:30:23.587Z,44.32
2018-07-06T08:31:23.554Z,46.53
2018-07-06T08:32:23.555Z,45.57
2018-07-06T08:33:23.555Z,43.46
2018-07-06T08:34:23.557Z,45.18
2018-07-06T08:35:23.551Z,46.53
2018-07-06T08:36:23.561Z,45.95
2018-07-06T08:37:23.550Z,45.28
2018-07-06T08:38:23.548Z,46.34
2018-07-06T08:39:23.550Z,46.72
2018-07-06T08:40:23.548Z,47.68
2018-07-06T08:41:23.549Z,48.25
2018-07-06T08:42:23.550Z,48.83
2018-07-06T08:43:23.549Z,50.17
2018-07-06T08:44:23.548Z,52.09
2018-07-06T08:45:23.545Z,52.28
2018-07-06T08:46:23.547Z,51.61
2018-07-06T08:47:23.545Z,50.84
2018-07-06T08:48:23.546Z,48.93
2018-07-06T08:49:23.546Z,48.64
2018-07-06T08:50:23.571Z,48.74
2018-07-06T08:51:23.544Z,49.60
2018-07-06T08:52:23.544Z,49.60
2018-07-06T08:53:23.544Z,51.16
2018-07-06T08:54:23.546Z,50.29
2018-07-06T08:55:23.546Z,53.08
2018-07-06T08:56:23.544Z,56.34
2018-07-06T08:57:23.543Z,58.07
2018-07-06T08:58:23.639Z,59.83
2018-07-06T08:59:23.543Z,63.09
2018-07-06T09:00:23.541Z,62.71
2018-07-06T09:01:23.541Z,66.84
2018-07-06T09:02:23.542Z,66.26
2018-07-06T09:03:23.544Z,69.91
2018-07-06T09:04:23.735Z,70.58
2018-07-06T09:05:23.551Z,72.92
2018-07-06T09:06:23.548Z,74.75
2018-07-06T09:07:23.548Z,73.31
2018-07-06T09:08:23.549Z,73.98
2018-07-06T09:09:23.612Z,74.37
2018-07-06T09:10:23.634Z,76.67
2018-07-06T09:11:23.675Z,78.59
2018-07-06T09:12:23.632Z,78.88
2018-07-06T09:13:23.579Z,74.17
2018-07-06T09:14:23.602Z,78.55
2018-07-06T09:15:23.561Z,74.33
2018-07-06T09:16:23.659Z,73.94
2018-07-06T09:17:23.747Z,72.89
2018-07-06T09:18:23.565Z,73.27
2018-07-06T09:19:23.805Z,72.92
2018-07-06T09:20:23.565Z,72.16
2018-07-06T09:21:23.563Z,73.21
2018-07-06T09:22:23.565Z,75.71
2018-07-06T09:23:23.568Z,81.76
2018-07-06T09:24:23.599Z,86.76
2018-07-06T09:25:23.650Z,88.15
2018-07-06T09:26:23.639Z,88.44
2018-07-06T09:27:23.573Z,87.15
2018-07-06T09:28:23.572Z,83.73
2018-07-06T09:29:23.575Z,88.53
2018-07-06T09:30:23.575Z,88.34
2018-07-06T09:31:23.581Z,87.29
2018-07-06T09:32:23.580Z,88.82
2018-07-06T09:33:23.588Z,90.50
2018-07-06T09:34:23.583Z,95.17
2018-07-06T09:35:23.583Z,95.70
2018-07-06T09:36:23.589Z,95.12
2018-07-06T09:37:23.592Z,93.96
2018-07-06T09:38:23.592Z,94.06
2018-07-06T09:39:23.592Z,96.37
2018-07-06T09:40:23.598Z,97.28
2018-07-06T09:41:23.601Z,97.96
2018-07-06T09:42:23.609Z,96.99
2018-07-06T09:43:23.669Z,99.99
2018-07-06T09:44:23.611Z,99.99
2018-07-06T09:45:23.614Z,99.99
2018-07-06T09:46:23.624Z,99.93
2018-07-06T09:47:23.620Z,95.74
2018-07-06T09:48:23.620Z,94.49
2018-07-06T09:49:23.622Z,95.79
2018-07-06T09:50:23.626Z,97.24
2018-07-06T09:51:23.628Z,96.75
2018-07-06T09:52:23.635Z,99.59
2018-07-06T09:53:23.639Z,97.42
2018-07-06T09:54:23.642Z,97.62
2018-07-06T09:55:23.643Z,99.16
2018-07-06T09:56:23.643Z,92.23
2018-07-06T09:57:23.655Z,97.81
2018-07-06T09:58:23.670Z,96.47
2018-07-06T09:59:23.652Z,97.42
2018-07-06T10:00:23.653Z,94.35
2018-07-06T10:01:23.659Z,93.10
2018-07-06T10:02:23.657Z,94.92
2018-07-06T10:03:23.681Z,93.19
2018-07-06T10:04:23.720Z,91.36
2018-07-06T10:05:23.667Z,89.25
2018-07-06T10:06:23.672Z,92.61
2018-07-06T10:07:23.673Z,93.58
2018-07-06T10:08:23.673Z,95.40
2018-07-06T10:09:23.675Z,96.37
2018-07-06T10:10:23.703Z,95.70
2018-07-06T10:11:23.683Z,95.21
2018-07-06T10:12:23.681Z,95.40
2018-07-06T10:13:23.691Z,97.52
2018-07-06T10:14:23.689Z,96.66
2018-07-06T10:15:23.689Z,98.58
2018-07-06T10:16:23.699Z,98.29
2018-07-06T10:17:23.697Z,98.19
2018-07-06T10:18:23.700Z,97.09
2018-07-06T10:19:23.708Z,94.30
2018-07-06T10:20:23.704Z,95.98
2018-07-06T10:21:23.706Z,98.77
2018-07-06T10:22:23.705Z,99.99
2018-07-06T10:23:23.715Z,99.99
2018-07-06T10:24:23.714Z,99.44
2018-07-06T10:25:23.717Z,99.84
2018-07-06T10:26:23.723Z,99.99
2018-07-06T10:27:23.789Z,99.99
2018-07-06T10:28:23.729Z,99.99
2018-07-06T10:29:23.729Z,99.99
2018-07-06T10:30:23.735Z,99.99
2018-07-06T10:31:23.734Z,99.99
2018-07-06T10:32:23.738Z,99.99
2018-07-06T10:33:23.762Z,99.99
2018-07-06T10:34:23.753Z,99.99
2018-07-06T10:35:23.751Z,97.14
2018-07-06T10:36:23.754Z,94.78
2018-07-06T10:37:23.757Z,99.49
2018-07-06T10:38:23.762Z,97.57
2018-07-06T10:39:23.771Z,97.67
2018-07-06T10:40:23.757Z,99.99
2018-07-06T10:41:23.773Z,99.99
2018-07-06T10:42:23.770Z,99.59
2018-07-06T10:43:23.773Z,99.01
2018-07-06T10:44:23.780Z,97.38
2018-07-06T10:45:23.781Z,97.86
2018-07-06T10:46:23.781Z,98.54
2018-07-06T10:47:23.787Z,99.49
2018-07-06T10:48:23.789Z,96.89
2018-07-06T10:49:23.794Z,95.55
2018-07-06T10:50:23.799Z,94.97
2018-07-06T10:51:23.800Z,95.84
2018-07-06T10:52:23.801Z,94.59
2018-07-06T10:53:23.806Z,96.08
2018-07-06T10:54:23.807Z,94.40
2018-07-06T10:55:23.811Z,98.19
2018-07-06T10:56:23.813Z,94.64
2018-07-06T10:57:23.819Z,92.33
2018-07-06T10:58:23.822Z,92.52
2018-07-06T10:59:23.842Z,92.91
2018-07-06T11:00:23.819Z,93.68
2018-07-06T11:01:23.836Z,91.46
2018-07-06T11:02:23.817Z,90.89
2018-07-06T11:03:23.823Z,86.85
2018-07-06T11:04:23.831Z,90.31
2018-07-06T11:05:23.835Z,88.10
2018-07-06T11:06:23.838Z,87.13
2018-07-06T11:07:23.845Z,85.11
2018-07-06T11:08:23.842Z,85.60
2018-07-06T11:09:23.842Z,87.13
2018-07-06T11:10:23.846Z,87.08
2018-07-06T11:11:23.846Z,89.49
2018-07-06T11:12:23.841Z,91.80
2018-07-06T11:13:23.884Z,91.03
2018-07-06T11:14:23.853Z,91.75
2018-07-06T11:15:23.852Z,93.72
2018-07-06T11:16:23.853Z,94.15
2018-07-06T11:17:23.855Z,91.27
2018-07-06T11:18:23.860Z,92.33
2018-07-06T11:19:23.875Z,97.14
2018-07-06T11:20:23.862Z,93.68
2018-07-06T11:21:23.860Z,94.10
2018-07-06T11:22:23.867Z,94.78
2018-07-06T11:23:23.868Z,98.72
2018-07-06T11:24:23.867Z,98.58
2018-07-06T11:25:23.955Z,99.84
2018-07-06T11:26:23.880Z,98.92
2018-07-06T11:27:23.882Z,99.99
2018-07-06T11:28:23.876Z,99.99
2018-07-06T11:29:23.880Z,99.44
2018-07-06T11:30:23.882Z,99.21
2018-07-06T11:31:23.886Z,97.57
2018-07-06T11:32:23.883Z,98.68
2018-07-06T11:33:23.893Z,97.52
2018-07-06T11:34:23.895Z,98.39
2018-07-06T11:35:23.915Z,98.39
2018-07-06T11:36:23.907Z,96.37
2018-07-06T11:37:23.902Z,96.37
2018-07-06T11:38:23.898Z,96.22
2018-07-06T11:39:23.928Z,94.30
2018-07-06T11:40:23.909Z,91.03
2018-07-06T11:41:23.912Z,94.87
2018-07-06T11:42:23.916Z,93.48
2018-07-06T11:43:23.910Z,93.58
2018-07-06T11:44:23.926Z,90.69
2018-07-06T11:45:23.924Z,91.03
2018-07-06T11:46:23.925Z,88.92
2018-07-06T11:47:23.926Z,84.69
2018-07-06T11:48:23.932Z,81.52
2018-07-06T11:49:23.937Z,80.17
2018-07-06T11:50:24.001Z,79.60
2018-07-06T11:51:23.947Z,76.61
2018-07-06T11:52:23.970Z,78.06
2018-07-06T11:53:23.950Z,82.29
2018-07-06T11:54:23.942Z,82.82
2018-07-06T11:55:23.943Z,79.21
2018-07-06T11:56:23.938Z,81.04
2018-07-06T11:57:23.936Z,82.96
2018-07-06T11:58:23.940Z,79.30
2018-07-06T11:59:23.947Z,85.17
2018-07-06T12:00:23.945Z,83.92
2018-07-06T12:01:23.941Z,81.99
2018-07-06T12:02:23.939Z,81.52
2018-07-06T12:03:23.941Z,83.15
2018-07-06T12:04:24.011Z,85.69
2018-07-06T12:05:23.943Z,89.11
2018-07-06T12:06:23.944Z,89.83
2018-07-06T12:07:23.948Z,89.78
2018-07-06T12:08:23.956Z,87.71
2018-07-06T12:09:23.946Z,84.54
2018-07-06T12:10:23.959Z,87.09
2018-07-06T12:11:23.944Z,85.75
2018-07-06T12:12:23.950Z,86.36
2018-07-06T12:13:23.949Z,86.46
2018-07-06T12:14:23.953Z,88.87
2018-07-06T12:15:23.953Z,93.05
2018-07-06T12:16:23.952Z,99.99
2018-07-06T12:17:23.957Z,99.99
2018-07-06T12:18:23.946Z,99.99
2018-07-06T12:19:23.966Z,99.99
2018-07-06T12:20:23.959Z,99.99
2018-07-06T12:21:23.994Z,99.99
2018-07-06T12:22:23.968Z,99.99
2018-07-06T12:23:24.012Z,99.99
2018-07-06T12:24:23.977Z,99.99
2018-07-06T12:25:23.989Z,99.99
2018-07-06T12:26:23.993Z,99.99
2018-07-06T12:27:23.999Z,99.99
2018-07-06T12:28:24.007Z,99.99
2018-07-06T12:29:24.023Z,99.99
2018-07-06T12:30:24.021Z,99.99
2018-07-06T12:31:24.028Z,99.99
2018-07-06T12:32:24.038Z,99.99
2018-07-06T12:33:24.049Z,99.99
2018-07-06T12:34:24.056Z,99.99
2018-07-06T12:35:24.063Z,99.99
2018-07-06T12:36:24.075Z,99.99
2018-07-06T12:37:24.084Z,99.99
2018-07-06T12:38:24.090Z,99.99
2018-07-06T12:39:24.095Z,99.99
2018-07-06T12:40:24.096Z,99.99
2018-07-06T12:41:24.113Z,99.99
2018-07-06T12:42:24.121Z,99.99
2018-07-06T12:43:24.130Z,99.99
2018-07-06T12:44:24.135Z,99.99
2018-07-06T12:45:24.145Z,99.99
2018-07-06T12:46:24.149Z,99.99
2018-07-06T12:47:24.158Z,99.99
2018-07-06T12:48:24.162Z,99.99
2018-07-06T12:49:24.172Z,99.99
2018-07-06T12:50:24.182Z,99.99
2018-07-06T12:51:24.186Z,99.99
2018-07-06T12:52:24.191Z,99.99
2018-07-06T12:53:24.200Z,99.99
2018-07-06T12:54:24.206Z,99.99
2018-07-06T12:55:24.214Z,99.99
2018-07-06T12:56:24.224Z,99.99
2018-07-06T12:57:24.227Z,99.99
2018-07-06T12:58:24.299Z,99.99
2018-07-06T12:59:24.240Z,99.99
2018-07-06T13:00:24.246Z,99.99
2018-07-06T13:01:24.250Z,99.99
2018-07-06T13:02:24.255Z,99.99
2018-07-06T13:03:24.264Z,99.99
2018-07-06T13:04:24.283Z,99.99
2018-07-06T13:05:24.281Z,99.99
2018-07-06T13:06:24.288Z,99.99
2018-07-06T13:07:24.290Z,99.99
2018-07-06T13:08:24.298Z,99.99
2018-07-06T13:09:24.303Z,99.99
2018-07-06T13:10:24.370Z,99.99
2018-07-06T13:11:24.312Z,99.99
2018-07-06T13:12:24.318Z,99.99
2018-07-06T13:13:24.325Z,99.99
2018-07-06T13:14:24.329Z,99.99
2018-07-06T13:15:24.332Z,99.99
2018-07-06T13:16:24.342Z,99.99
2018-07-06T13:17:24.361Z,99.99
2018-07-06T13:18:24.351Z,99.99
2018-07-06T13:19:24.354Z,99.99
2018-07-06T13:20:24.360Z,99.99
2018-07-06T13:21:24.366Z,99.99
2018-07-06T13:22:24.370Z,99.99
2018-07-06T13:23:24.375Z,99.99
2018-07-06T13:24:24.380Z,99.99
2018-07-06T13:25:24.388Z,99.99
2018-07-06T13:26:24.395Z,99.99
2018-07-06T13:27:24.396Z,99.99
2018-07-06T13:28:24.404Z,99.99
2018-07-06T13:29:24.409Z,99.99
2018-07-06T13:30:24.435Z,99.99
2018-07-06T13:31:24.417Z,99.99
2018-07-06T13:32:24.421Z,99.99
2018-07-06T13:33:24.479Z,99.99
2018-07-06T13:34:24.432Z,99.99
2018-07-06T13:35:24.435Z,99.99
2018-07-06T13:36:24.441Z,99.99
2018-07-06T13:37:24.444Z,99.99
2018-07-06T13:38:24.442Z,99.99
2018-07-06T13:39:24.458Z,99.99
2018-07-06T13:40:24.460Z,99.99
2018-07-06T13:41:24.461Z,99.99
2018-07-06T13:42:24.466Z,99.99
2018-07-06T13:43:24.469Z,99.99
2018-07-06T13:44:24.474Z,99.99
2018-07-06T13:45:24.476Z,99.99
2018-07-06T13:46:24.487Z,99.99